Flight Track Log - Related Links

Times and Time Zones

All times are in EDT time to prevent confusion due to time zone crossing. See the UCA4799 flight status page for this flight to view local times or setup timezone preferences in your user account.

Time Position Orientation Groundspeed Altitude Reporting Facility
EDT Latitude Longitude Course Direction KTS MPH feet Rate Location/Type
Mon 02:47:32 PM 40.6333 -74.1833 333° Northwest 171 197 2,100  Level New York TRACON
Mon 02:48:38 PM 40.6833 -74.2167 333° Northwest 234 269 3,400 1,300 Climbing New York TRACON
Mon 02:49:32 PM 40.7500 -74.2000 11° North 219 252 4,700 1,300 Climbing New York TRACON
Mon 02:50:38 PM 40.8167 -74.2000 360° North 211 243 6,000 650 Climbing New York TRACON
Mon 02:51:32 PM 40.8667 -74.1833 14° North 243 280 6,000 50 Level New York TRACON
Mon 02:52:38 PM 40.9333 -74.1667 11° North 257 296 6,100 50 Climbing New York TRACON
Mon 02:53:32 PM 41.0000 -74.1667 360° North 259 298 6,100  Level New York TRACON
Mon 02:54:32 PM 41.0833 -74.1500 North 266 306 6,100 -50 Level New York TRACON
Mon 02:55:32 PM 41.1500 -74.1333 11° North 275 316 6,000 -45 Descending New York TRACON
Mon 02:56:46 PM 41.1872 -74.0047 69° East 293 337 6,000 696 Level Boston Center
Mon 02:57:50 PM 41.2086 -73.9078 74° East 275 316 7,600 1,528 Climbing Boston Center
Mon 02:58:32 PM 41.2167 -73.8500 79° East 249 287 8,700 1,294 Climbing New York TRACON
Mon 02:59:32 PM 41.2500 -73.7500 66° East 250 288 9,800 1,129 Climbing New York TRACON
Mon 03:01:54 PM 41.2972 -73.5575 72° East 248 285 12,500 932 Climbing Boston Center
Mon 03:02:58 PM 41.3506 -73.4881 44° Northeast 250 288 13,000 192 Climbing Boston Center
Mon 03:03:59 PM 41.4058 -73.4125 46° Northeast 279 321 12,900 -49 Descending Boston Center
Mon 03:05:01 PM 41.4669 -73.3342 44° Northeast 290 334 12,900  Level Boston Center
Mon 03:06:02 PM 41.5317 -73.2847 30° Northeast 283 326 12,900 50 Level Boston Center
Mon 03:07:02 PM 41.6047 -73.3111 345° North 254 292 13,000  Climbing Boston Center
Mon 03:08:02 PM 41.6794 -73.3119 360° North 264 304 12,900 -145 Descending Boston Center
Mon 03:09:06 PM 41.7533 -73.3206 355° North 265 305 12,700 -532 Descending Boston Center
Mon 03:10:06 PM 41.8217 -73.3631 335° Northwest 265 305 11,800 -769 Descending Boston Center
Mon 03:11:03 PM 41.8828 -73.3989 336° Northwest 275 316 11,200 -686 Descending Boston Center
Mon 03:11:16 PM 41.9003 -73.4103 334° Northwest 273 314 11,000 -179 Descending Boston Center
Mon 03:12:10 PM 41.9647 -73.4450 338° Northwest 268 308 11,000  Level Boston Center
Mon 03:13:11 PM 42.0283 -73.4806 337° Northwest 253 291 11,000  Level Boston Center
Mon 03:14:12 PM 42.0872 -73.5142 337° Northwest 242 278 11,000  Level Boston Center
Mon 03:15:15 PM 42.1547 -73.5267 352° North 247 284 11,000 -194 Level Boston Center
Mon 03:16:16 PM 42.2261 -73.5283 359° North 251 289 10,600 -744 Descending Boston Center
Mon 03:17:16 PM 42.2997 -73.5383 354° North 259 298 9,500 -1,339 Descending Boston Center
Mon 03:18:17 PM 42.3822 -73.5486 355° North 257 296 7,900 -1,152 Descending Boston Center
Mon 03:19:21 PM 42.4419 -73.5686 346° North 223 257 7,100 -864 Descending Boston Center
Mon 03:20:22 PM 42.5067 -73.5903 346° North 240 276 6,100 -1,140 Descending Boston Center
Mon 03:21:22 PM 42.5719 -73.6208 341° North 245 282 4,800 -1,041 Descending Boston Center
Mon 03:22:23 PM 42.6411 -73.6550 340° North 242 278 4,000 -443 Descending Boston Center
Mon 03:23:24 PM 42.6981 -73.6814 341° North 222 255 3,900 -655 Descending Boston Center
Mon 03:24:22 PM 42.7400 -73.7353 317° Northwest 208 239 2,700 -1,008 Descending Boston Center
Mon 03:25:29 PM 42.7878 -73.7647 336° Northwest 180 207 1,800 -934 Descending Boston Center
Mon 03:26:24 PM 42.7850 -73.8058 265° West 111 128 800 -744 Descending Boston Center
Mon 03:27:30 PM 42.7517 -73.8047 179° South 117 135 300 -455 Descending Boston Center
Mon 03:29:00 PM 42.7491 -73.8020 North  Level Estimated

Login

Don't have an account? Register now (free) for customized features, flight alerts, and more!